Aviation Digital Data Service (ADDS)

Output produced by METARs form (0312 UTC 01 October 2016)
found at http://aviationweather.gov/adds/metars/
 
KFDY 302333Z 0100/0124 08010KT P6SM BKN007 
     FM010200 10007KT P6SM VCSH BKN012 
     TEMPO 0103/0106 5SM -SHRA SCT012 BKN028 
     FM010800 12003KT 4SM BR BKN010 
     TEMPO 0109/0113 OVC008 
     FM011500 17007KT P6SM BKN018 BKN035 
     FM012000 18008KT P6SM VCSH BKN040